createdAt,value
2023-04-29T00:00:49.008Z,95764.50
2023-04-29T00:01:52.074Z,95762.28
2023-04-29T00:02:57.082Z,95757.28
2023-04-29T00:03:59.574Z,95753.19
2023-04-29T00:05:05.475Z,95754.09
2023-04-29T00:06:08.121Z,95757.97
2023-04-29T00:07:15.658Z,95752.34
2023-04-29T00:08:17.754Z,95752.50
2023-04-29T00:09:31.658Z,95752.69
2023-04-29T00:10:33.785Z,95752.69
2023-04-29T00:11:38.546Z,95760.56
2023-04-29T00:12:41.438Z,95757.13
2023-04-29T00:13:48.727Z,95763.41
2023-04-29T00:14:50.964Z,95758.22
2023-04-29T00:16:08.857Z,95757.75
2023-04-29T00:17:10.953Z,95761.47
2023-04-29T00:18:15.801Z,95759.88
2023-04-29T00:19:19.102Z,95761.78
2023-04-29T00:20:23.761Z,95755.78
2023-04-29T00:21:27.605Z,95762.06
2023-04-29T00:22:32.323Z,95765.69
2023-04-29T00:23:37.587Z,95756.38
2023-04-29T00:24:42.300Z,95757.50
2023-04-29T00:25:44.424Z,95754.56
2023-04-29T00:26:49.100Z,95760.84
2023-04-29T00:27:51.297Z,95757.69
2023-04-29T00:28:58.556Z,95761.34
2023-04-29T00:30:00.822Z,95757.50
2023-04-29T00:31:05.736Z,95758.84
2023-04-29T00:32:08.072Z,95756.28
2023-04-29T00:33:12.855Z,95755.53
2023-04-29T00:34:14.976Z,95757.53
2023-04-29T00:35:19.836Z,95758.47
2023-04-29T00:36:22.029Z,95758.66
2023-04-29T00:37:26.885Z,95762.97
2023-04-29T00:38:29.147Z,95757.97
2023-04-29T00:39:34.124Z,95755.47
2023-04-29T00:40:36.479Z,95764.03
2023-04-29T00:41:41.194Z,95756.06
2023-04-29T00:42:43.532Z,95755.59
2023-04-29T00:43:48.235Z,95751.16
2023-04-29T00:44:53.079Z,95757.19
2023-04-29T00:45:57.987Z,95758.88
2023-04-29T00:47:00.952Z,95754.41
2023-04-29T00:48:05.941Z,95763.13
2023-04-29T00:49:09.129Z,95764.13
2023-04-29T00:50:14.285Z,95759.88
2023-04-29T00:51:18.564Z,95762.38
2023-04-29T00:52:23.366Z,95755.41
2023-04-29T00:53:25.553Z,95759.78
2023-04-29T00:54:30.609Z,95768.50
2023-04-29T00:55:33.842Z,95763.19
2023-04-29T00:56:40.576Z,95762.94
2023-04-29T00:57:42.896Z,95766.28
2023-04-29T00:58:50.495Z,95768.88
2023-04-29T00:59:55.532Z,95767.38
2023-04-29T01:01:00.311Z,95775.16
2023-04-29T01:02:03.284Z,95766.66
2023-04-29T01:03:29.479Z,95768.56
2023-04-29T01:04:31.887Z,95773.03
2023-04-29T01:05:36.682Z,95771.34
2023-04-29T01:06:50.100Z,95774.03
2023-04-29T01:08:07.060Z,95772.34
2023-04-29T01:09:27.384Z,95780.88
2023-04-29T01:10:34.897Z,95774.94
2023-04-29T01:11:54.510Z,95778.47
2023-04-29T01:13:09.881Z,95771.81
2023-04-29T01:14:12.841Z,95771.94
2023-04-29T01:15:25.570Z,95771.22
2023-04-29T01:16:38.147Z,95768.03
2023-04-29T01:17:48.219Z,95775.25
2023-04-29T01:18:54.886Z,95777.25
2023-04-29T01:20:02.059Z,95775.59
2023-04-29T01:21:04.482Z,95776.44
2023-04-29T01:22:09.305Z,95776.50
2023-04-29T01:23:11.400Z,95774.09
2023-04-29T01:24:18.959Z,95776.13
2023-04-29T01:25:21.059Z,95781.31
2023-04-29T01:26:26.657Z,95773.53
2023-04-29T01:27:33.893Z,95773.44
2023-04-29T01:28:49.944Z,95774.25
2023-04-29T01:29:57.014Z,95777.59
2023-04-29T01:31:09.930Z,95778.53
2023-04-29T01:32:17.814Z,95774.59
2023-04-29T01:33:32.626Z,95781.97
2023-04-29T01:34:43.038Z,95776.69
2023-04-29T01:35:59.257Z,95781.97
2023-04-29T01:37:10.442Z,95779.63
2023-04-29T01:38:26.654Z,95780.56
2023-04-29T01:39:40.509Z,95777.53
2023-04-29T01:40:56.872Z,95786.31
2023-04-29T01:42:11.659Z,95784.81
2023-04-29T01:43:18.590Z,95778.13
2023-04-29T01:44:24.127Z,95776.78
2023-04-29T01:45:30.394Z,95781.22
2023-04-29T01:46:35.557Z,95773.69
2023-04-29T01:47:39.478Z,95778.19
2023-04-29T01:48:44.466Z,95775.78
2023-04-29T01:49:47.240Z,95777.13
2023-04-29T01:50:52.501Z,95785.16
2023-04-29T01:51:55.210Z,95782.00
2023-04-29T01:53:00.010Z,95786.66
2023-04-29T01:54:02.283Z,95779.97
2023-04-29T01:55:11.332Z,95786.75
2023-04-29T01:56:13.527Z,95784.22
2023-04-29T01:57:18.289Z,95783.47
2023-04-29T01:58:20.741Z,95782.75
2023-04-29T01:59:25.438Z,95785.41
2023-04-29T02:00:27.643Z,95777.69
2023-04-29T02:01:32.315Z,95776.13
2023-04-29T02:02:34.420Z,95784.31
2023-04-29T02:03:41.714Z,95773.44
2023-04-29T02:04:43.944Z,95775.53
2023-04-29T02:05:50.677Z,95775.44
2023-04-29T02:06:53.128Z,95779.16
2023-04-29T02:07:57.891Z,95779.41
2023-04-29T02:09:00.009Z,95780.41
2023-04-29T02:10:04.730Z,95776.16
2023-04-29T02:11:12.071Z,95775.88
2023-04-29T02:12:14.155Z,95775.88
2023-04-29T02:13:18.811Z,95767.44
2023-04-29T02:14:23.533Z,95774.56
2023-04-29T02:15:27.017Z,95778.13
2023-04-29T02:16:31.863Z,95776.38
2023-04-29T02:17:34.261Z,95781.66
2023-04-29T02:18:39.095Z,95774.03
2023-04-29T02:19:41.239Z,95775.03
2023-04-29T02:20:46.401Z,95780.34
2023-04-29T02:21:51.590Z,95774.34
2023-04-29T02:22:56.327Z,95775.09
2023-04-29T02:23:58.408Z,95774.72
2023-04-29T02:25:03.133Z,95772.97
2023-04-29T02:26:06.459Z,95772.13
2023-04-29T02:27:13.814Z,95782.56
2023-04-29T02:28:15.936Z,95784.53
2023-04-29T02:29:20.643Z,95778.84
2023-04-29T02:30:22.901Z,95780.78
2023-04-29T02:31:29.387Z,95778.34
2023-04-29T02:32:31.904Z,95787.84
2023-04-29T02:33:36.696Z,95782.81
2023-04-29T02:34:38.723Z,95788.16
2023-04-29T02:35:43.676Z,95786.50
2023-04-29T02:36:45.718Z,95786.56
2023-04-29T02:37:50.531Z,95786.81
2023-04-29T02:38:55.372Z,95783.47
2023-04-29T02:40:00.310Z,95788.63
2023-04-29T02:41:02.421Z,95781.09
2023-04-29T02:42:07.287Z,95784.50
2023-04-29T02:43:15.040Z,95786.38
2023-04-29T02:44:17.225Z,95784.84
2023-04-29T02:45:22.582Z,95786.75
2023-04-29T02:46:24.849Z,95789.28
2023-04-29T02:47:29.623Z,95785.09
2023-04-29T02:48:31.734Z,95780.75
2023-04-29T02:49:37.294Z,95780.91
2023-04-29T02:50:39.415Z,95782.66
2023-04-29T02:51:44.276Z,95783.72
2023-04-29T02:52:46.769Z,95785.53
2023-04-29T02:53:51.432Z,95785.53
2023-04-29T02:54:53.545Z,95777.09
2023-04-29T02:55:58.444Z,95783.94
2023-04-29T02:57:00.600Z,95789.03
2023-04-29T02:58:05.365Z,95783.72
2023-04-29T02:59:10.200Z,95778.38
2023-04-29T03:00:15.437Z,95782.41
2023-04-29T03:01:17.614Z,95782.09
2023-04-29T03:02:22.486Z,95785.97
2023-04-29T03:03:24.784Z,95785.50
2023-04-29T03:04:29.736Z,95786.84
2023-04-29T03:05:32.219Z,95785.94
2023-04-29T03:06:36.980Z,95787.69
2023-04-29T03:07:39.103Z,95785.03
2023-04-29T03:08:43.809Z,95779.78
2023-04-29T03:09:45.866Z,95784.88
2023-04-29T03:10:50.549Z,95784.69
2023-04-29T03:11:55.300Z,95788.88
2023-04-29T03:12:57.325Z,95786.22
2023-04-29T03:14:02.112Z,95785.41
2023-04-29T03:15:08.068Z,95783.72
2023-04-29T03:16:14.017Z,95793.22
2023-04-29T03:17:16.263Z,95789.81
2023-04-29T03:18:20.982Z,95788.06
2023-04-29T03:19:23.132Z,95788.06
2023-04-29T03:20:27.810Z,95787.13
2023-04-29T03:21:30.407Z,95787.22
2023-04-29T03:22:35.122Z,95785.47
2023-04-29T03:23:39.562Z,95779.69
2023-04-29T03:24:44.859Z,95788.59
2023-04-29T03:25:47.030Z,95775.16
2023-04-29T03:26:51.727Z,95779.72
2023-04-29T03:27:53.822Z,95776.38
2023-04-29T03:28:58.767Z,95779.13
2023-04-29T03:30:01.010Z,95774.88
2023-04-29T03:31:08.563Z,95777.47
2023-04-29T03:32:11.183Z,95778.34
2023-04-29T03:33:15.855Z,95777.75
2023-04-29T03:34:18.129Z,95775.31
2023-04-29T03:35:23.037Z,95773.63
2023-04-29T03:36:28.182Z,95771.03
2023-04-29T03:37:30.515Z,95775.47
2023-04-29T03:38:35.197Z,95771.88
2023-04-29T03:39:37.273Z,95770.38
2023-04-29T03:40:42.038Z,95772.31
2023-04-29T03:41:44.219Z,95772.53
2023-04-29T03:42:48.969Z,95762.44
2023-04-29T03:43:51.996Z,95769.88
2023-04-29T03:44:56.712Z,95762.41
2023-04-29T03:45:58.994Z,95761.66
2023-04-29T03:47:06.928Z,95767.41
2023-04-29T03:48:09.680Z,95761.00
2023-04-29T03:49:14.568Z,95768.00
2023-04-29T03:50:16.730Z,95762.94
2023-04-29T03:51:21.703Z,95764.66
2023-04-29T03:52:23.995Z,95768.94
2023-04-29T03:53:29.166Z,95765.50
2023-04-29T03:54:31.612Z,95763.09
2023-04-29T03:55:36.295Z,95769.94
2023-04-29T03:56:41.323Z,95768.19
2023-04-29T03:57:46.037Z,95769.09
2023-04-29T03:58:48.179Z,95769.28
2023-04-29T03:59:53.132Z,95768.28
2023-04-29T04:00:55.552Z,95765.69
2023-04-29T04:02:00.303Z,95764.34
2023-04-29T04:03:05.850Z,95761.41
2023-04-29T04:04:11.103Z,95758.09
2023-04-29T04:05:13.770Z,95763.44
2023-04-29T04:06:18.704Z,95762.59
2023-04-29T04:07:20.994Z,95765.34
2023-04-29T04:08:25.636Z,95759.09
2023-04-29T04:09:27.713Z,95762.28
2023-04-29T04:10:32.431Z,95761.81
2023-04-29T04:11:34.502Z,95765.59
2023-04-29T04:13:15.722Z,95768.19
2023-04-29T04:14:19.198Z,95765.16
2023-04-29T04:15:24.065Z,95766.34
2023-04-29T04:16:26.263Z,95770.09
2023-04-29T04:17:31.002Z,95774.28
2023-04-29T04:18:35.665Z,95769.88
2023-04-29T04:19:40.374Z,95772.94
2023-04-29T04:20:42.425Z,95773.69
2023-04-29T04:21:47.073Z,95777.88
2023-04-29T04:22:49.232Z,95776.88
2023-04-29T04:23:53.880Z,95781.56
2023-04-29T04:24:55.969Z,95779.03
2023-04-29T04:26:00.664Z,95777.97
2023-04-29T04:27:05.484Z,95781.13
2023-04-29T04:28:07.666Z,95781.63
2023-04-29T04:29:12.424Z,95785.63
2023-04-29T04:30:14.521Z,95784.50
2023-04-29T04:31:19.254Z,95788.53
2023-04-29T04:32:22.027Z,95794.28
2023-04-29T04:33:27.629Z,95791.44
2023-04-29T04:34:32.606Z,95793.09
2023-04-29T04:35:37.353Z,95791.44
2023-04-29T04:36:39.440Z,95791.91
2023-04-29T04:37:44.139Z,95795.91
2023-04-29T04:38:46.271Z,95799.72
2023-04-29T04:39:51.308Z,95797.91
2023-04-29T04:40:53.537Z,95797.81
2023-04-29T04:41:58.196Z,95801.25
2023-04-29T04:43:00.938Z,95801.91
2023-04-29T04:44:06.590Z,95788.00
2023-04-29T04:45:11.556Z,95800.81
2023-04-29T04:46:17.608Z,95801.63
2023-04-29T04:47:19.765Z,95795.50
2023-04-29T04:48:24.498Z,95808.41
2023-04-29T04:49:27.474Z,95799.63
2023-04-29T04:50:35.082Z,95804.69
2023-04-29T04:51:37.200Z,95802.84
2023-04-29T04:52:42.643Z,95808.97
2023-04-29T04:53:44.704Z,95802.69
2023-04-29T04:54:49.400Z,95806.84
2023-04-29T04:55:51.484Z,95812.88
2023-04-29T04:56:56.206Z,95806.78
2023-04-29T04:57:58.751Z,95816.31
2023-04-29T04:59:03.895Z,95818.63
2023-04-29T05:00:08.183Z,95818.28
2023-04-29T05:01:12.870Z,95808.63
2023-04-29T05:02:15.050Z,95821.38
2023-04-29T05:03:19.895Z,95807.44
2023-04-29T05:04:22.178Z,95811.69
2023-04-29T05:05:26.949Z,95803.72
2023-04-29T05:06:32.107Z,95810.50
2023-04-29T05:07:37.775Z,95817.56
2023-04-29T05:08:39.909Z,95815.88
2023-04-29T05:09:44.651Z,95814.22
2023-04-29T05:10:46.761Z,95810.97
2023-04-29T05:11:51.532Z,95818.47
2023-04-29T05:12:53.558Z,95821.06
2023-04-29T05:13:58.413Z,95820.31
2023-04-29T05:15:00.543Z,95825.00
2023-04-29T05:16:06.722Z,95824.22
2023-04-29T05:17:11.678Z,95827.00
2023-04-29T05:18:13.776Z,95827.19
2023-04-29T05:19:18.550Z,95823.22
2023-04-29T05:20:20.863Z,95823.09
2023-04-29T05:21:25.630Z,95825.41
2023-04-29T05:22:30.315Z,95832.81
2023-04-29T05:23:35.023Z,95831.69
2023-04-29T05:24:37.120Z,95828.75
2023-04-29T05:25:41.789Z,95829.47
2023-04-29T05:26:44.433Z,95833.09
2023-04-29T05:27:49.193Z,95832.44
2023-04-29T05:28:51.338Z,95827.69
2023-04-29T05:29:56.068Z,95835.50
2023-04-29T05:30:58.199Z,95838.56
2023-04-29T05:32:02.965Z,95838.38
2023-04-29T05:33:05.317Z,95847.84
2023-04-29T05:34:10.097Z,95843.97
2023-04-29T05:35:12.429Z,95847.28
2023-04-29T05:36:17.133Z,95841.94
2023-04-29T05:37:19.210Z,95850.34
2023-04-29T05:38:29.296Z,95852.78
2023-04-29T05:39:31.408Z,95851.56
2023-04-29T05:40:36.336Z,95859.16
2023-04-29T05:41:38.584Z,95852.50
2023-04-29T05:42:43.391Z,95860.13
2023-04-29T05:43:45.936Z,95867.34
2023-04-29T05:44:50.681Z,95864.00
2023-04-29T05:45:52.752Z,95858.78
2023-04-29T05:46:57.562Z,95863.16
2023-04-29T05:47:59.666Z,95864.38
2023-04-29T05:49:04.449Z,95867.91
2023-04-29T05:50:07.757Z,95868.63
2023-04-29T05:51:12.586Z,95875.13
2023-04-29T05:52:14.832Z,95874.06
2023-04-29T05:53:19.568Z,95875.22
2023-04-29T05:54:24.616Z,95877.41
2023-04-29T05:55:29.385Z,95876.91
2023-04-29T05:56:34.549Z,95878.59
2023-04-29T05:57:39.354Z,95876.59
2023-04-29T05:58:41.472Z,95880.13
2023-04-29T05:59:46.124Z,95891.22
2023-04-29T06:00:49.645Z,95887.00
2023-04-29T06:01:54.329Z,95887.56
2023-04-29T06:02:59.194Z,95883.56
2023-04-29T06:04:04.392Z,95889.22
2023-04-29T06:05:08.444Z,95890.06
2023-04-29T06:06:13.956Z,95894.41
2023-04-29T06:07:18.297Z,95891.53
2023-04-29T06:08:24.892Z,95889.19
2023-04-29T06:09:33.495Z,95885.59
2023-04-29T06:10:38.180Z,95896.81
2023-04-29T06:11:40.521Z,95887.75
2023-04-29T06:12:45.203Z,95896.00
2023-04-29T06:13:47.263Z,95894.78
2023-04-29T06:14:52.511Z,95894.31
2023-04-29T06:15:54.791Z,95895.72
2023-04-29T06:16:59.621Z,95894.34
2023-04-29T06:18:04.348Z,95900.00
2023-04-29T06:19:06.576Z,95899.53
2023-04-29T06:20:12.982Z,95904.00
2023-04-29T06:21:16.085Z,95900.56
2023-04-29T06:22:20.752Z,95898.22
2023-04-29T06:23:22.905Z,95903.91
2023-04-29T06:24:27.587Z,95905.38
2023-04-29T06:25:32.317Z,95910.22
2023-04-29T06:26:37.271Z,95911.53
2023-04-29T06:29:34.299Z,95915.72
2023-04-29T06:30:36.655Z,95913.53
2023-04-29T06:31:41.440Z,95919.94
2023-04-29T06:32:43.580Z,95918.19
2023-04-29T06:33:48.234Z,95921.72
2023-04-29T06:34:50.614Z,95919.94
2023-04-29T06:35:55.433Z,95923.84
2023-04-29T06:36:57.497Z,95922.06
2023-04-29T06:38:02.195Z,95928.03
2023-04-29T06:39:04.530Z,95921.91
2023-04-29T06:40:10.894Z,95929.50
2023-04-29T06:41:15.625Z,95926.34
2023-04-29T06:42:20.208Z,95928.22
2023-04-29T06:43:22.321Z,95931.75
2023-04-29T06:44:27.784Z,95926.84
2023-04-29T06:45:29.934Z,95924.16
2023-04-29T06:46:34.910Z,95931.75
2023-04-29T06:47:37.266Z,95931.94
2023-04-29T06:48:41.978Z,95935.66
2023-04-29T06:49:44.155Z,95927.94
2023-04-29T06:50:55.741Z,95934.28
2023-04-29T06:52:02.431Z,95934.16
2023-04-29T06:53:04.535Z,95935.38
2023-04-29T06:54:09.139Z,95936.22
2023-04-29T06:55:11.560Z,95937.44
2023-04-29T06:56:18.758Z,95937.16
2023-04-29T06:57:21.063Z,95932.31
2023-04-29T06:58:25.683Z,95934.34
2023-04-29T06:59:27.764Z,95941.78
2023-04-29T07:00:32.465Z,95937.44
2023-04-29T07:01:34.996Z,95934.16
2023-04-29T07:02:39.816Z,95934.84
2023-04-29T07:03:42.536Z,95936.59
2023-04-29T07:04:47.489Z,95943.69
2023-04-29T07:05:49.572Z,95939.00
2023-04-29T07:06:54.536Z,95936.22
2023-04-29T07:07:59.291Z,95934.44
2023-04-29T07:09:03.932Z,95943.19
2023-04-29T07:10:06.774Z,95939.47
2023-04-29T07:11:11.517Z,95939.47
2023-04-29T07:12:18.773Z,95946.25
2023-04-29T07:13:20.809Z,95956.81
2023-04-29T07:14:25.650Z,95954.25
2023-04-29T07:15:28.042Z,95952.19
2023-04-29T07:16:32.789Z,95954.78
2023-04-29T07:17:37.672Z,95954.97
2023-04-29T07:18:39.884Z,95955.25
2023-04-29T07:19:44.626Z,95948.44
2023-04-29T07:20:48.222Z,95946.97
2023-04-29T07:21:52.969Z,95953.75
2023-04-29T07:22:55.166Z,95942.22
2023-04-29T07:24:02.495Z,95953.81
2023-04-29T07:25:05.141Z,95946.69
2023-04-29T07:26:14.225Z,95949.03
2023-04-29T07:27:18.864Z,95945.06
2023-04-29T07:28:23.557Z,95949.91
2023-04-29T07:29:28.200Z,95948.34
2023-04-29T07:30:30.575Z,95941.84
2023-04-29T07:31:38.034Z,95947.03
2023-04-29T07:32:40.625Z,95946.75
2023-04-29T07:33:45.523Z,95943.47
2023-04-29T07:34:48.956Z,95944.75
2023-04-29T07:35:53.603Z,95945.69
2023-04-29T07:36:56.496Z,95943.72
2023-04-29T07:38:01.430Z,95942.28
2023-04-29T07:39:03.768Z,95943.22
2023-04-29T07:40:10.462Z,95942.28
2023-04-29T07:41:15.163Z,95940.47
2023-04-29T07:42:22.543Z,95948.28
2023-04-29T07:43:24.741Z,95942.03
2023-04-29T07:44:29.421Z,95946.13
2023-04-29T07:45:34.040Z,95943.44
2023-04-29T07:46:36.185Z,95943.72
2023-04-29T07:47:40.849Z,95948.63
2023-04-29T07:48:43.028Z,95949.38
2023-04-29T07:49:47.643Z,95945.19
2023-04-29T07:50:49.739Z,95955.22
2023-04-29T07:51:54.392Z,95954.59
2023-04-29T07:52:58.095Z,95958.75
2023-04-29T07:54:02.835Z,95951.03
2023-04-29T07:55:05.871Z,95951.56
2023-04-29T07:56:12.120Z,95968.31
2023-04-29T07:57:14.328Z,95973.63
2023-04-29T07:58:21.617Z,95969.19
2023-04-29T07:59:23.665Z,95974.66
2023-04-29T08:00:28.531Z,95970.13
2023-04-29T08:01:30.594Z,95971.81
2023-04-29T08:02:35.344Z,95970.19
2023-04-29T08:03:40.758Z,95971.19
2023-04-29T08:04:47.125Z,95967.66
2023-04-29T08:05:51.555Z,95965.09
2023-04-29T08:06:56.293Z,95972.63
2023-04-29T08:07:58.345Z,95975.69
2023-04-29T08:09:03.304Z,95969.41
2023-04-29T08:10:06.911Z,95972.72
2023-04-29T08:11:11.832Z,95972.75
2023-04-29T08:12:13.868Z,95976.91
2023-04-29T08:13:21.110Z,95977.22
2023-04-29T08:14:23.170Z,95975.16
2023-04-29T08:15:28.292Z,95982.59
2023-04-29T08:16:30.825Z,95976.34
2023-04-29T08:17:35.652Z,95978.75
2023-04-29T08:18:37.945Z,95980.66
2023-04-29T08:19:43.087Z,95982.09
2023-04-29T08:20:45.181Z,95988.50
2023-04-29T08:21:49.889Z,95992.59
2023-04-29T08:22:52.012Z,95983.16
2023-04-29T08:24:14.703Z,95992.47
2023-04-29T08:25:17.193Z,95993.91
2023-04-29T08:26:24.121Z,95987.66
2023-04-29T08:27:26.968Z,95990.69
2023-04-29T08:28:34.304Z,95993.25
2023-04-29T08:29:51.887Z,95991.88
2023-04-29T08:30:54.079Z,95994.47
2023-04-29T08:31:58.890Z,95987.06
2023-04-29T08:33:01.058Z,95984.88
2023-04-29T08:34:05.765Z,95986.97
2023-04-29T08:35:09.171Z,95982.94
2023-04-29T08:36:14.065Z,95989.91
2023-04-29T08:37:18.466Z,95989.50
2023-04-29T08:38:23.497Z,95986.59
2023-04-29T08:39:26.182Z,95981.81
2023-04-29T08:40:30.956Z,95989.25
2023-04-29T08:41:33.314Z,95987.66
2023-04-29T08:42:39.222Z,95985.69
2023-04-29T08:43:44.090Z,95989.88
2023-04-29T08:44:48.829Z,95986.31
2023-04-29T08:45:50.984Z,95980.44
2023-04-29T08:46:56.102Z,95987.56
2023-04-29T08:48:02.323Z,95977.44
2023-04-29T08:49:04.612Z,95985.81
2023-04-29T08:50:12.035Z,95991.00
2023-04-29T08:51:14.131Z,95989.00
2023-04-29T08:52:18.848Z,95991.41
2023-04-29T08:53:21.246Z,95996.31
2023-04-29T08:54:26.321Z,95988.78
2023-04-29T08:55:31.249Z,95985.00
2023-04-29T08:56:34.311Z,95982.13
2023-04-29T08:57:41.143Z,95987.03
2023-04-29T08:58:46.728Z,95990.72
2023-04-29T08:59:51.451Z,95981.13
2023-04-29T09:00:54.120Z,95987.97
2023-04-29T09:02:00.290Z,95981.94
2023-04-29T09:03:12.484Z,95983.44
2023-04-29T09:04:30.853Z,95977.91
2023-04-29T09:05:37.259Z,95972.31
2023-04-29T09:06:39.399Z,95981.97
2023-04-29T09:07:45.163Z,95981.34
2023-04-29T09:08:47.271Z,95988.53
2023-04-29T09:09:55.290Z,95990.03
2023-04-29T09:10:59.115Z,95985.78
2023-04-29T09:12:03.825Z,95989.16
2023-04-29T09:13:05.939Z,95992.34
2023-04-29T09:14:13.238Z,95986.22
2023-04-29T09:15:18.262Z,96003.00
2023-04-29T09:16:20.323Z,95993.78
2023-04-29T09:17:42.361Z,95995.03
2023-04-29T09:18:46.968Z,95995.41
2023-04-29T09:19:51.690Z,95989.00
2023-04-29T09:20:54.527Z,95986.53
2023-04-29T09:21:59.319Z,95993.13
2023-04-29T09:23:05.193Z,95992.84
2023-04-29T09:24:09.832Z,95986.84
2023-04-29T09:25:15.392Z,95989.53
2023-04-29T09:26:21.085Z,96001.69
2023-04-29T09:27:29.442Z,95995.38
2023-04-29T09:28:34.328Z,95996.53
2023-04-29T09:29:41.735Z,95995.25
2023-04-29T09:30:47.365Z,96002.84
2023-04-29T09:31:53.861Z,95996.31
2023-04-29T09:33:07.704Z,95983.50
2023-04-29T09:34:13.306Z,95977.69
2023-04-29T09:35:23.338Z,95992.53
2023-04-29T09:36:42.285Z,95997.78
2023-04-29T09:37:46.990Z,95993.66
2023-04-29T09:38:55.255Z,95988.72
2023-04-29T09:40:00.280Z,95993.00
2023-04-29T09:41:18.222Z,95995.66
2023-04-29T09:42:22.962Z,95996.84
2023-04-29T09:43:27.689Z,96008.63
2023-04-29T09:44:34.338Z,96011.00
2023-04-29T09:45:44.459Z,96011.91
2023-04-29T09:46:58.448Z,96006.25
2023-04-29T09:48:03.276Z,96004.81
2023-04-29T09:49:26.319Z,96001.38
2023-04-29T09:50:28.937Z,96011.84
2023-04-29T09:51:35.172Z,96011.53
2023-04-29T09:52:41.941Z,96008.47
2023-04-29T09:53:46.809Z,96008.22
2023-04-29T09:54:51.820Z,96010.25
2023-04-29T09:56:01.898Z,96008.31
2023-04-29T09:57:08.924Z,95998.34
2023-04-29T09:58:28.693Z,95993.44
2023-04-29T09:59:33.674Z,95994.88
2023-04-29T10:00:41.399Z,96000.63
2023-04-29T10:01:46.736Z,95999.78
2023-04-29T10:02:52.709Z,96005.84
2023-04-29T10:03:57.094Z,96008.31
2023-04-29T10:05:02.258Z,96005.84
2023-04-29T10:06:05.974Z,96015.97
2023-04-29T10:07:11.900Z,96012.97
2023-04-29T10:08:14.480Z,96021.59
2023-04-29T10:09:20.130Z,96030.72
2023-04-29T10:10:24.716Z,96031.03
2023-04-29T10:11:30.028Z,96029.97
2023-04-29T10:12:36.287Z,96025.69
2023-04-29T10:13:45.232Z,96026.50
2023-04-29T10:14:55.475Z,96029.94
2023-04-29T10:16:11.145Z,96030.25
2023-04-29T10:17:24.061Z,96028.91
2023-04-29T10:18:38.195Z,96032.13
2023-04-29T10:19:50.483Z,96028.53
2023-04-29T10:20:53.969Z,96024.25
2023-04-29T10:22:03.623Z,96031.47
2023-04-29T10:24:15.055Z,96028.91
2023-04-29T10:25:21.704Z,96034.34
2023-04-29T10:26:27.199Z,96044.13
2023-04-29T10:27:35.135Z,96032.25
2023-04-29T10:28:39.920Z,96034.94
2023-04-29T10:29:47.293Z,96030.69
2023-04-29T10:30:52.157Z,96030.69
2023-04-29T10:32:01.636Z,96027.84
2023-04-29T10:33:07.826Z,96030.56
2023-04-29T10:34:13.127Z,96030.38
2023-04-29T10:35:16.937Z,96028.72
2023-04-29T10:36:22.915Z,96038.09
2023-04-29T10:37:25.960Z,96033.00
2023-04-29T10:38:36.336Z,96027.84
2023-04-29T10:39:49.744Z,96029.13
2023-04-29T10:40:53.913Z,96028.38
2023-04-29T10:41:59.981Z,96024.94
2023-04-29T10:43:02.115Z,96023.91
2023-04-29T10:44:07.241Z,96009.00
2023-04-29T10:45:31.477Z,96008.91
2023-04-29T10:46:33.937Z,96009.63
2023-04-29T10:47:41.338Z,96017.13
2023-04-29T10:48:43.864Z,96012.88
2023-04-29T10:50:05.232Z,96017.84
2023-04-29T10:51:07.441Z,96018.16
2023-04-29T10:52:19.625Z,96017.72
2023-04-29T10:53:22.558Z,96016.00
2023-04-29T10:54:27.220Z,96012.78
2023-04-29T10:55:29.582Z,96011.13
2023-04-29T10:56:42.874Z,96011.69
2023-04-29T10:57:44.973Z,95998.56
2023-04-29T10:58:50.028Z,96000.97
2023-04-29T10:59:57.054Z,95991.72
2023-04-29T11:00:59.705Z,95982.88
2023-04-29T11:02:04.496Z,95995.03
2023-04-29T11:03:44.322Z,95996.50
2023-04-29T11:05:10.811Z,95976.47
2023-04-29T11:06:12.893Z,95976.69
2023-04-29T11:07:31.181Z,95954.66
2023-04-29T11:08:40.138Z,95953.75
2023-04-29T11:09:44.981Z,95967.53
2023-04-29T11:10:47.798Z,95972.31
2023-04-29T11:12:05.722Z,95966.09
2023-04-29T11:14:55.919Z,95996.50
2023-04-29T11:16:05.321Z,95990.91
2023-04-29T11:17:12.553Z,95986.31
2023-04-29T11:18:18.336Z,95979.44
2023-04-29T11:19:23.230Z,95993.69
2023-04-29T11:20:27.930Z,95990.94
2023-04-29T11:21:31.385Z,96006.72
2023-04-29T11:24:07.569Z,95999.41
2023-04-29T11:25:12.857Z,95999.16
2023-04-29T11:26:15.362Z,96008.22
2023-04-29T11:27:23.168Z,96007.13
2023-04-29T11:28:27.843Z,96005.50
2023-04-29T11:29:31.639Z,96014.50
2023-04-29T11:30:36.778Z,96008.50
2023-04-29T11:31:39.663Z,95999.94
2023-04-29T11:32:45.583Z,96002.97
2023-04-29T11:33:50.500Z,96006.03
2023-04-29T11:34:55.636Z,96011.09
2023-04-29T11:35:58.401Z,96010.34
2023-04-29T11:37:03.200Z,96010.69
2023-04-29T11:38:06.001Z,96003.34
2023-04-29T11:39:11.273Z,95999.75
2023-04-29T11:40:17.660Z,95996.31
2023-04-29T11:41:20.448Z,95996.75
2023-04-29T11:42:25.536Z,95978.25
2023-04-29T11:43:27.700Z,95963.88
2023-04-29T11:44:32.562Z,95963.19
2023-04-29T11:45:36.657Z,95960.88
2023-04-29T11:46:41.311Z,95968.03
2023-04-29T11:47:45.289Z,95952.34
2023-04-29T11:48:53.403Z,95951.47
2023-04-29T11:50:03.131Z,95928.88
2023-04-29T11:51:08.222Z,95938.16
2023-04-29T11:52:11.228Z,95936.94
2023-04-29T11:53:15.963Z,95927.56
2023-04-29T11:54:18.053Z,95923.63
2023-04-29T11:55:22.967Z,95902.97
2023-04-29T11:56:25.847Z,95899.50
2023-04-29T11:57:30.598Z,95943.44
2023-04-29T11:58:32.744Z,95951.84
2023-04-29T11:59:37.507Z,95936.84
2023-04-29T12:00:39.616Z,95956.78
2023-04-29T12:01:45.067Z,95944.38
2023-04-29T12:02:47.952Z,95929.28
2023-04-29T12:04:03.025Z,95938.09
2023-04-29T12:05:07.808Z,95933.28
2023-04-29T12:06:12.594Z,95903.97
2023-04-29T12:07:16.962Z,95916.72
2023-04-29T12:08:22.995Z,95920.84
2023-04-29T12:09:27.797Z,95911.59
2023-04-29T12:10:33.436Z,95931.88
2023-04-29T12:11:36.984Z,95901.03
2023-04-29T12:12:44.206Z,95905.56
2023-04-29T12:13:49.476Z,95886.41
2023-04-29T12:14:51.983Z,95876.09
2023-04-29T12:15:57.624Z,95880.78
2023-04-29T12:16:59.838Z,95882.97
2023-04-29T12:18:04.900Z,95871.41
2023-04-29T12:19:10.851Z,95902.66
2023-04-29T12:20:16.005Z,95870.31
2023-04-29T12:21:20.922Z,95858.25
2023-04-29T12:22:22.983Z,95843.09
2023-04-29T12:23:29.056Z,95847.00
2023-04-29T12:24:34.389Z,95868.09
2023-04-29T12:25:39.001Z,95873.13
2023-04-29T12:26:41.698Z,95851.97
2023-04-29T12:27:46.785Z,95898.41
2023-04-29T12:28:49.623Z,95884.91
2023-04-29T12:29:55.204Z,95916.25
2023-04-29T12:30:59.387Z,95912.91
2023-04-29T12:32:04.141Z,95906.25
2023-04-29T12:33:09.311Z,95905.22
2023-04-29T12:34:16.696Z,95911.56
2023-04-29T12:35:19.018Z,95902.97
2023-04-29T12:36:23.716Z,95892.97
2023-04-29T12:37:26.254Z,95902.56
2023-04-29T12:38:33.813Z,95877.47
2023-04-29T12:39:39.169Z,95888.53
2023-04-29T12:40:41.505Z,95881.84
2023-04-29T12:41:46.767Z,95870.22
2023-04-29T12:42:49.140Z,95854.56
2023-04-29T12:43:54.149Z,95856.88
2023-04-29T12:44:56.469Z,95868.47
2023-04-29T12:46:05.317Z,95866.34
2023-04-29T12:47:09.150Z,95850.94
2023-04-29T12:48:25.466Z,95896.53
2023-04-29T12:49:34.535Z,95883.94
2023-04-29T12:50:40.730Z,95880.81
2023-04-29T12:51:42.813Z,95866.09
2023-04-29T12:52:47.522Z,95860.38